Rock Falls, IL

10:28 AM CDT on August 26, 2016 (GMT -0500)
Whiteside County-Bittorf

Weather History for KSQI - November, 2012

Change the Weather History Date:

Thursday, November 1, 2012

  Actual Average Record
Temperature  
Mean Temperature 44 °F -  
Max Temperature 59 °F 53 °F 78 °F (2000)
Min Temperature 28 °F 35 °F 21 °F (1996)
Degree Days  
Heating Degree Days 22    
Moisture  
Dew Point 27 °F    
Average Humidity 56    
Maximum Humidity 70    
Minimum Humidity 38    
Precipitation  
Precipitation 0.00 in - - ()
Sea Level Pressure  
Sea Level Pressure 29.90 in    
Wind  
Wind Speed 7 mph (WNW)    
Max Wind Speed 16 mph    
Max Gust Speed 23 mph    
Visibility 10 miles    
Events      
Averages and records for this station are not official NWS values.
T = Trace of Precipitation, MM = Missing Value Source: NWS Daily Summary

Daily Weather History Graph

Daily Weather History Graph

Search for Another Location

Airport or City:

Trip Planner

Search our weather history database for the weather conditions in past years. The results will help you decide how hot, cold, wet, or windy it might be!

Date:

Astronomy

Nov. 01, 2012 Rise Set
Actual Time 7:31 AM CDT 5:52 PM CDT
Civil Twilight 7:02 AM CDT 6:21 PM CDT
Nautical Twilight 6:29 AM CDT 6:54 PM CDT
Astronomical Twilight 5:57 AM CDT 7:26 PM CDT
Moon 7:47 PM CDT (11/1) 10:05 AM CDT (11/1)
Length of Visible Light 11h 18m
Length of Day
10h 21m
Waning Gibbous, 93% of the Moon is Illuminated
Nov 1
Waning Gibbous
Nov 6
Last Quarter
Nov 13
New
Nov 20
First Quarter
Nov 28
Full

Hourly Weather History & Observations

Time (CDT) Temp. Windchill Dew Point Humidity Pressure Visibility Wind Dir Wind Speed Gust Speed Precip Events Conditions
12:15 AM 32.0 °F 26.4 °F 17.6 °F 55% 29.91 in 10.0 mi West 5.8 mph - N/A   Clear
12:35 AM 30.2 °F 25.4 °F 19.4 °F 64% 29.91 in 10.0 mi West 4.6 mph - N/A   Clear
12:55 AM 32.0 °F 27.5 °F 17.6 °F 55% 29.91 in 10.0 mi West 4.6 mph - N/A   Clear
1:15 AM 30.2 °F 22.6 °F 17.6 °F 60% 29.92 in 10.0 mi West 8.1 mph - N/A   Clear
1:35 AM 28.4 °F 21.2 °F 19.4 °F 69% 29.92 in 10.0 mi West 6.9 mph - N/A   Clear
1:55 AM 28.4 °F 23.3 °F 19.4 °F 69% 29.92 in 10.0 mi West 4.6 mph - N/A   Clear
2:15 AM 30.2 °F 23.4 °F 19.4 °F 64% 29.92 in 10.0 mi West 6.9 mph - N/A   Mostly Cloudy
2:35 AM 30.2 °F 25.4 °F 21.2 °F 69% 29.93 in 10.0 mi West 4.6 mph - N/A   Overcast
2:55 AM 32.0 °F 25.6 °F 21.2 °F 64% 29.93 in 10.0 mi West 6.9 mph - N/A   Overcast
3:15 AM 32.0 °F 25.6 °F 21.2 °F 64% 29.92 in 10.0 mi West 6.9 mph - N/A   Overcast
3:35 AM 33.8 °F 27.7 °F 21.2 °F 60% 29.91 in 10.0 mi West 6.9 mph - N/A   Overcast
3:55 AM 33.8 °F 29.6 °F 21.2 °F 60% 29.91 in 10.0 mi West 4.6 mph - N/A   Overcast
4:15 AM 33.8 °F 30.8 °F 21.2 °F 60% 29.90 in 10.0 mi West 3.5 mph - N/A   Mostly Cloudy
4:35 AM 32.0 °F 27.5 °F 21.2 °F 64% 29.90 in 10.0 mi WSW 4.6 mph - N/A   Scattered Clouds
5:15 AM 32.0 °F 27.5 °F 21.2 °F 64% 29.91 in 10.0 mi West 4.6 mph - N/A   Mostly Cloudy
5:35 AM 32.0 °F 26.4 °F 21.2 °F 64% 29.90 in 10.0 mi WSW 5.8 mph - N/A   Mostly Cloudy
6:15 AM 32.0 °F 25.6 °F 21.2 °F 64% 29.92 in 10.0 mi WSW 6.9 mph - N/A   Clear
6:35 AM 30.2 °F 24.3 °F 21.2 °F 69% 29.91 in 10.0 mi WSW 5.8 mph - N/A   Clear
6:55 AM 30.2 °F 24.3 °F 21.2 °F 69% 29.91 in 10.0 mi WSW 5.8 mph - N/A   Partly Cloudy
7:15 AM 30.2 °F 24.3 °F 21.2 °F 69% 29.91 in 10.0 mi West 5.8 mph - N/A   Partly Cloudy
8:35 AM 35.6 °F 29.9 °F 24.8 °F 65% 29.93 in 10.0 mi WSW 6.9 mph - N/A   Clear
9:15 AM 39.2 °F 35.0 °F 26.6 °F 61% 29.94 in 10.0 mi West 5.8 mph - N/A   Mostly Cloudy
9:35 AM 41.0 °F 35.8 °F 26.6 °F 57% 29.94 in 10.0 mi West 8.1 mph - N/A   Overcast
9:55 AM 42.8 °F 38.6 °F 26.6 °F 53% 29.94 in 10.0 mi West 6.9 mph - N/A   Overcast
10:15 AM 42.8 °F 38.6 °F 28.4 °F 57% 29.93 in 10.0 mi West 6.9 mph - N/A   Overcast
10:35 AM 44.6 °F 41.4 °F 28.4 °F 53% 29.93 in 10.0 mi West 5.8 mph - N/A   Overcast
11:15 AM 46.4 °F 43.5 °F 30.2 °F 53% 29.93 in 10.0 mi West 5.8 mph - N/A   Overcast
11:35 AM 46.4 °F 44.3 °F 30.2 °F 53% 29.92 in 10.0 mi WNW 4.6 mph - N/A   Overcast
11:55 AM 50.0 °F - 30.2 °F 47% 29.91 in 10.0 mi WNW 6.9 mph - N/A   Overcast
12:15 PM 51.8 °F - 30.2 °F 44% 29.90 in 10.0 mi WNW 6.9 mph - N/A   Overcast
12:35 PM 55.4 °F - 30.2 °F 38% 29.89 in 10.0 mi West 5.8 mph - N/A   Mostly Cloudy
1:15 PM 55.4 °F - 30.2 °F 38% 29.88 in 10.0 mi West 6.9 mph - N/A   Overcast
1:35 PM 57.2 °F - 32.0 °F 38% 29.86 in 10.0 mi NW 9.2 mph - N/A   Overcast
1:55 PM 57.2 °F - 33.8 °F 41% 29.86 in 10.0 mi West 11.5 mph - N/A   Overcast
2:15 PM 57.2 °F - 35.6 °F 44% 29.84 in 10.0 mi West 9.2 mph - N/A   Mostly Cloudy
2:35 PM 59.0 °F - 35.6 °F 42% 29.84 in 10.0 mi West 16.1 mph - N/A   Clear
2:55 PM 59.0 °F - 33.8 °F 39% 29.83 in 10.0 mi West 9.2 mph - N/A   Clear
3:15 PM 59.0 °F - 33.8 °F 39% 29.83 in 10.0 mi West 11.5 mph - N/A   Clear
3:35 PM 59.0 °F - 35.6 °F 42% 29.83 in 10.0 mi NW 15.0 mph 18.4 mph N/A   Clear
4:15 PM 57.2 °F - 33.8 °F 41% 29.83 in 10.0 mi WNW 10.4 mph 23.0 mph N/A   Clear
4:35 PM 57.2 °F - 33.8 °F 41% 29.83 in 10.0 mi NW 13.8 mph - N/A   Clear
4:55 PM 55.4 °F - 33.8 °F 44% 29.83 in 10.0 mi WNW 12.7 mph 18.4 mph N/A   Clear
5:15 PM 55.4 °F - 33.8 °F 44% 29.83 in 10.0 mi NW 12.7 mph - N/A   Clear
5:35 PM 53.6 °F - 33.8 °F 47% 29.84 in 10.0 mi NW 8.1 mph - N/A   Clear
5:55 PM 51.8 °F - 32.0 °F 47% 29.84 in 10.0 mi North 8.1 mph - N/A   Clear
6:15 PM 50.0 °F - 30.2 °F 47% 29.85 in 10.0 mi NNW 8.1 mph - N/A   Clear
6:35 PM 48.2 °F - 30.2 °F 50% 29.85 in 10.0 mi NNW 6.9 mph - N/A   Clear
7:15 PM 46.4 °F 42.9 °F 30.2 °F 53% 29.87 in 10.0 mi NNW 6.9 mph - N/A   Clear
7:35 PM 44.6 °F 39.7 °F 30.2 °F 57% 29.87 in 10.0 mi North 9.2 mph - N/A   Clear
7:55 PM 46.4 °F 41.9 °F 28.4 °F 50% 29.89 in 10.0 mi NNW 9.2 mph - N/A   Clear
8:15 PM 44.6 °F 39.7 °F 28.4 °F 53% 29.89 in 10.0 mi NNW 9.2 mph - N/A   Clear
8:35 PM 42.8 °F 38.0 °F 28.4 °F 57% 29.90 in 10.0 mi North 8.1 mph - N/A   Clear
8:55 PM 42.8 °F 37.0 °F 28.4 °F 57% 29.91 in 10.0 mi NNW 10.4 mph - N/A   Clear
9:15 PM 42.8 °F 37.0 °F 28.4 °F 57% 29.91 in 10.0 mi North 10.4 mph - N/A   Clear
9:35 PM 41.0 °F 37.1 °F 28.4 °F 61% 29.92 in 10.0 mi North 5.8 mph - N/A   Clear
9:55 PM 41.0 °F 36.4 °F 28.4 °F 61% 29.92 in 10.0 mi North 6.9 mph - N/A   Clear
10:15 PM 39.2 °F 33.6 °F 28.4 °F 65% 29.92 in 10.0 mi North 8.1 mph - N/A   Clear
10:35 PM 39.2 °F 35.0 °F 26.6 °F 61% 29.93 in 10.0 mi North 5.8 mph - N/A   Clear
10:55 PM 37.4 °F 33.8 °F 26.6 °F 65% 29.94 in 10.0 mi North 4.6 mph - N/A   Clear
11:15 PM 37.4 °F 32.1 °F 26.6 °F 65% 29.94 in 10.0 mi NNW 6.9 mph - N/A   Clear
11:35 PM 35.6 °F 31.7 °F 26.6 °F 70% 29.94 in 10.0 mi NNW 4.6 mph - N/A   Clear
11:55 PM 35.6 °F 31.7 °F 26.6 °F 70% 29.95 in 10.0 mi NNW 4.6 mph - N/A   Clear